Terminal Aerodrome Forecast
Issued by NWS

Current Version | Previous Version | Text Only | Print | Product List | Glossary On
Versions: 1 2 3 4 5 6 7 8 9 10 11 12 13 14 15 16 17 18 19 20 21
000
FTUS46 KOTX 191740
TAFSFF
TAF
KSFF 191740Z 1918/2018 21006KT P6SM BKN012 OVC100
     FM192000 21008KT P6SM SCT018 BKN030 BKN090
      TEMPO 1920/1922 BKN018 OVC030
     FM200100 21004KT P6SM SCT020 BKN080
     FM200500 20004KT P6SM BKN020 OVC050
     FM200700 20005KT 5SM -RASN BR OVC013
     FM201100 21006KT 6SM BR OVC009=

USA.gov is the U.S. government's official web portal to all federal, state and local government web resources and services.